sensor_id;sensor_type;location;lat;lon;timestamp;P1;P2;P0
69123;PMS5003;56232;53.384;-2.732;2023-02-28T00:01:51;14;14;
69123;PMS5003;56232;53.384;-2.732;2023-02-28T00:04:17;15;14;
69123;PMS5003;56232;53.384;-2.732;2023-02-28T00:06:42;16;16;
69123;PMS5003;56232;53.384;-2.732;2023-02-28T00:09:07;13;13;
69123;PMS5003;56232;53.384;-2.732;2023-02-28T00:11:33;13;13;
69123;PMS5003;56232;53.384;-2.732;2023-02-28T00:13:59;16;15;
69123;PMS5003;56232;53.384;-2.732;2023-02-28T00:16:24;15;15;
69123;PMS5003;56232;53.384;-2.732;2023-02-28T00:18:50;15;14;
69123;PMS5003;56232;53.384;-2.732;2023-02-28T00:21:16;13;12;
69123;PMS5003;56232;53.384;-2.732;2023-02-28T00:23:42;13;13;
69123;PMS5003;56232;53.384;-2.732;2023-02-28T00:26:08;12;12;
69123;PMS5003;56232;53.384;-2.732;2023-02-28T00:28:33;15;15;
69123;PMS5003;56232;53.384;-2.732;2023-02-28T00:30:59;14;13;
69123;PMS5003;56232;53.384;-2.732;2023-02-28T00:33:24;16;15;
69123;PMS5003;56232;53.384;-2.732;2023-02-28T00:35:50;13;13;
69123;PMS5003;56232;53.384;-2.732;2023-02-28T00:38:16;17;13;
69123;PMS5003;56232;53.384;-2.732;2023-02-28T00:40:41;11;11;
69123;PMS5003;56232;53.384;-2.732;2023-02-28T00:43:07;13;12;
69123;PMS5003;56232;53.384;-2.732;2023-02-28T00:45:32;14;14;
69123;PMS5003;56232;53.384;-2.732;2023-02-28T00:47:59;15;13;
69123;PMS5003;56232;53.384;-2.732;2023-02-28T00:50:24;13;13;
69123;PMS5003;56232;53.384;-2.732;2023-02-28T00:52:50;16;16;
69123;PMS5003;56232;53.384;-2.732;2023-02-28T00:55:16;15;14;
69123;PMS5003;56232;53.384;-2.732;2023-02-28T00:57:41;22;17;
69123;PMS5003;56232;53.384;-2.732;2023-02-28T01:00:07;22;20;
69123;PMS5003;56232;53.384;-2.732;2023-02-28T01:02:32;15;14;
69123;PMS5003;56232;53.384;-2.732;2023-02-28T01:04:59;25;21;
69123;PMS5003;56232;53.384;-2.732;2023-02-28T01:07:23;17;17;
69123;PMS5003;56232;53.384;-2.732;2023-02-28T01:09:49;15;15;
69123;PMS5003;56232;53.384;-2.732;2023-02-28T01:12:15;20;18;
69123;PMS5003;56232;53.384;-2.732;2023-02-28T01:14:41;18;17;
69123;PMS5003;56232;53.384;-2.732;2023-02-28T01:17:06;19;17;
69123;PMS5003;56232;53.384;-2.732;2023-02-28T01:19:31;15;14;
69123;PMS5003;56232;53.384;-2.732;2023-02-28T01:21:59;15;14;
69123;PMS5003;56232;53.384;-2.732;2023-02-28T01:24:22;16;14;
69123;PMS5003;56232;53.384;-2.732;2023-02-28T01:26:48;13;13;
69123;PMS5003;56232;53.384;-2.732;2023-02-28T01:29:14;15;15;
69123;PMS5003;56232;53.384;-2.732;2023-02-28T01:31:40;13;13;
69123;PMS5003;56232;53.384;-2.732;2023-02-28T01:34:06;15;15;
69123;PMS5003;56232;53.384;-2.732;2023-02-28T01:36:32;12;11;
69123;PMS5003;56232;53.384;-2.732;2023-02-28T01:38:58;11;11;
69123;PMS5003;56232;53.384;-2.732;2023-02-28T01:41:25;11;11;
69123;PMS5003;56232;53.384;-2.732;2023-02-28T01:43:53;10;10;
69123;PMS5003;56232;53.384;-2.732;2023-02-28T01:46:19;12;12;
69123;PMS5003;56232;53.384;-2.732;2023-02-28T01:48:40;23;17;
69123;PMS5003;56232;53.384;-2.732;2023-02-28T01:51:06;13;12;
69123;PMS5003;56232;53.384;-2.732;2023-02-28T01:53:32;15;15;
69123;PMS5003;56232;53.384;-2.732;2023-02-28T01:55:57;13;11;
69123;PMS5003;56232;53.384;-2.732;2023-02-28T01:58:23;11;11;
69123;PMS5003;56232;53.384;-2.732;2023-02-28T02:00:48;12;11;
69123;PMS5003;56232;53.384;-2.732;2023-02-28T02:03:14;14;13;
69123;PMS5003;56232;53.384;-2.732;2023-02-28T02:05:40;10;10;
69123;PMS5003;56232;53.384;-2.732;2023-02-28T02:08:05;8;8;
69123;PMS5003;56232;53.384;-2.732;2023-02-28T02:10:32;10;10;
69123;PMS5003;56232;53.384;-2.732;2023-02-28T02:15:23;12;11;
69123;PMS5003;56232;53.384;-2.732;2023-02-28T02:17:48;10;10;
69123;PMS5003;56232;53.384;-2.732;2023-02-28T02:20:18;11;11;
69123;PMS5003;56232;53.384;-2.732;2023-02-28T02:27:36;10;10;
69123;PMS5003;56232;53.384;-2.732;2023-02-28T02:30:04;9;9;
69123;PMS5003;56232;53.384;-2.732;2023-02-28T02:32:28;9;9;
69123;PMS5003;56232;53.384;-2.732;2023-02-28T02:34:50;9;9;
69123;PMS5003;56232;53.384;-2.732;2023-02-28T02:37:17;9;9;
69123;PMS5003;56232;53.384;-2.732;2023-02-28T02:39:41;11;10;
69123;PMS5003;56232;53.384;-2.732;2023-02-28T02:42:08;13;12;
69123;PMS5003;56232;53.384;-2.732;2023-02-28T02:44:31;9;8;
69123;PMS5003;56232;53.384;-2.732;2023-02-28T02:46:59;10;10;
69123;PMS5003;56232;53.384;-2.732;2023-02-28T02:49:24;13;12;
69123;PMS5003;56232;53.384;-2.732;2023-02-28T02:51:48;11;10;
69123;PMS5003;56232;53.384;-2.732;2023-02-28T02:54:15;8;8;
69123;PMS5003;56232;53.384;-2.732;2023-02-28T02:56:40;8;8;
69123;PMS5003;56232;53.384;-2.732;2023-02-28T02:59:07;9;9;
69123;PMS5003;56232;53.384;-2.732;2023-02-28T03:01:32;12;12;
69123;PMS5003;56232;53.384;-2.732;2023-02-28T03:03:59;10;10;
69123;PMS5003;56232;53.384;-2.732;2023-02-28T03:06:23;11;11;
69123;PMS5003;56232;53.384;-2.732;2023-02-28T03:08:49;10;10;
69123;PMS5003;56232;53.384;-2.732;2023-02-28T03:11:15;9;9;
69123;PMS5003;56232;53.384;-2.732;2023-02-28T03:13:44;10;10;
69123;PMS5003;56232;53.384;-2.732;2023-02-28T03:16:12;8;7;
69123;PMS5003;56232;53.384;-2.732;2023-02-28T03:18:34;7;7;
69123;PMS5003;56232;53.384;-2.732;2023-02-28T03:21:00;9;9;
69123;PMS5003;56232;53.384;-2.732;2023-02-28T03:23:25;8;8;
69123;PMS5003;56232;53.384;-2.732;2023-02-28T03:25:53;10;10;
69123;PMS5003;56232;53.384;-2.732;2023-02-28T03:28:15;9;9;
69123;PMS5003;56232;53.384;-2.732;2023-02-28T03:30:42;9;9;
69123;PMS5003;56232;53.384;-2.732;2023-02-28T03:33:08;9;9;
69123;PMS5003;56232;53.384;-2.732;2023-02-28T03:35:32;13;10;
69123;PMS5003;56232;53.384;-2.732;2023-02-28T03:38:00;10;10;
69123;PMS5003;56232;53.384;-2.732;2023-02-28T03:40:25;10;10;
69123;PMS5003;56232;53.384;-2.732;2023-02-28T03:42:50;9;9;
69123;PMS5003;56232;53.384;-2.732;2023-02-28T03:45:15;11;10;
69123;PMS5003;56232;53.384;-2.732;2023-02-28T03:47:41;9;9;
69123;PMS5003;56232;53.384;-2.732;2023-02-28T03:50:06;8;8;
69123;PMS5003;56232;53.384;-2.732;2023-02-28T03:52:32;10;10;
69123;PMS5003;56232;53.384;-2.732;2023-02-28T03:54:58;10;9;
69123;PMS5003;56232;53.384;-2.732;2023-02-28T03:57:25;8;8;
69123;PMS5003;56232;53.384;-2.732;2023-02-28T03:59:49;10;9;
69123;PMS5003;56232;53.384;-2.732;2023-02-28T04:02:14;8;8;
69123;PMS5003;56232;53.384;-2.732;2023-02-28T04:04:39;9;9;
69123;PMS5003;56232;53.384;-2.732;2023-02-28T04:07:06;10;9;
69123;PMS5003;56232;53.384;-2.732;2023-02-28T04:09:31;12;11;
69123;PMS5003;56232;53.384;-2.732;2023-02-28T04:11:57;8;8;
69123;PMS5003;56232;53.384;-2.732;2023-02-28T04:14:22;8;8;
69123;PMS5003;56232;53.384;-2.732;2023-02-28T04:16:48;10;10;
69123;PMS5003;56232;53.384;-2.732;2023-02-28T04:19:14;12;11;
69123;PMS5003;56232;53.384;-2.732;2023-02-28T04:21:40;12;12;
69123;PMS5003;56232;53.384;-2.732;2023-02-28T04:24:05;12;10;
69123;PMS5003;56232;53.384;-2.732;2023-02-28T04:26:31;10;10;
69123;PMS5003;56232;53.384;-2.732;2023-02-28T04:28:57;9;9;
69123;PMS5003;56232;53.384;-2.732;2023-02-28T04:31:22;14;14;
69123;PMS5003;56232;53.384;-2.732;2023-02-28T04:33:48;10;10;
69123;PMS5003;56232;53.384;-2.732;2023-02-28T04:36:14;10;10;
69123;PMS5003;56232;53.384;-2.732;2023-02-28T04:38:40;11;11;
69123;PMS5003;56232;53.384;-2.732;2023-02-28T04:41:06;15;14;
69123;PMS5003;56232;53.384;-2.732;2023-02-28T04:43:31;15;14;
69123;PMS5003;56232;53.384;-2.732;2023-02-28T04:46:00;10;10;
69123;PMS5003;56232;53.384;-2.732;2023-02-28T04:48:23;14;14;
69123;PMS5003;56232;53.384;-2.732;2023-02-28T04:50:48;15;10;
69123;PMS5003;56232;53.384;-2.732;2023-02-28T04:53:14;11;10;
69123;PMS5003;56232;53.384;-2.732;2023-02-28T04:55:40;12;11;
69123;PMS5003;56232;53.384;-2.732;2023-02-28T04:58:05;12;10;
69123;PMS5003;56232;53.384;-2.732;2023-02-28T05:05:22;12;10;
69123;PMS5003;56232;53.384;-2.732;2023-02-28T05:07:48;10;10;
69123;PMS5003;56232;53.384;-2.732;2023-02-28T05:10:13;11;11;
69123;PMS5003;56232;53.384;-2.732;2023-02-28T05:12:39;11;10;
69123;PMS5003;56232;53.384;-2.732;2023-02-28T05:15:05;10;9;
69123;PMS5003;56232;53.384;-2.732;2023-02-28T05:17:30;10;10;
69123;PMS5003;56232;53.384;-2.732;2023-02-28T05:19:56;9;9;
69123;PMS5003;56232;53.384;-2.732;2023-02-28T05:22:22;9;8;
69123;PMS5003;56232;53.384;-2.732;2023-02-28T05:24:47;10;10;
69123;PMS5003;56232;53.384;-2.732;2023-02-28T05:27:13;11;10;
69123;PMS5003;56232;53.384;-2.732;2023-02-28T05:29:39;12;12;
69123;PMS5003;56232;53.384;-2.732;2023-02-28T05:32:05;16;15;
69123;PMS5003;56232;53.384;-2.732;2023-02-28T05:34:30;15;13;
69123;PMS5003;56232;53.384;-2.732;2023-02-28T05:36:56;15;12;
69123;PMS5003;56232;53.384;-2.732;2023-02-28T05:39:22;9;9;
69123;PMS5003;56232;53.384;-2.732;2023-02-28T05:41:48;7;7;
69123;PMS5003;56232;53.384;-2.732;2023-02-28T05:44:13;9;8;
69123;PMS5003;56232;53.384;-2.732;2023-02-28T05:46:39;9;9;
69123;PMS5003;56232;53.384;-2.732;2023-02-28T05:49:05;8;8;
69123;PMS5003;56232;53.384;-2.732;2023-02-28T05:51:31;9;8;
69123;PMS5003;56232;53.384;-2.732;2023-02-28T05:53:59;9;9;
69123;PMS5003;56232;53.384;-2.732;2023-02-28T05:56:22;8;7;
69123;PMS5003;56232;53.384;-2.732;2023-02-28T05:58:48;7;7;
69123;PMS5003;56232;53.384;-2.732;2023-02-28T06:03:40;7;7;
69123;PMS5003;56232;53.384;-2.732;2023-02-28T06:06:06;6;6;
69123;PMS5003;56232;53.384;-2.732;2023-02-28T06:08:32;7;7;
69123;PMS5003;56232;53.384;-2.732;2023-02-28T06:10:57;7;7;
69123;PMS5003;56232;53.384;-2.732;2023-02-28T06:13:23;8;8;
69123;PMS5003;56232;53.384;-2.732;2023-02-28T06:15:48;8;8;
69123;PMS5003;56232;53.384;-2.732;2023-02-28T06:18:14;11;11;
69123;PMS5003;56232;53.384;-2.732;2023-02-28T06:20:40;10;10;
69123;PMS5003;56232;53.384;-2.732;2023-02-28T06:23:06;10;10;
69123;PMS5003;56232;53.384;-2.732;2023-02-28T06:25:31;11;10;
69123;PMS5003;56232;53.384;-2.732;2023-02-28T06:27:57;9;9;
69123;PMS5003;56232;53.384;-2.732;2023-02-28T06:30:22;8;8;
69123;PMS5003;56232;53.384;-2.732;2023-02-28T06:32:48;11;10;
69123;PMS5003;56232;53.384;-2.732;2023-02-28T06:35:14;10;9;
69123;PMS5003;56232;53.384;-2.732;2023-02-28T06:37:45;9;9;
69123;PMS5003;56232;53.384;-2.732;2023-02-28T06:40:06;7;7;
69123;PMS5003;56232;53.384;-2.732;2023-02-28T06:42:32;8;8;
69123;PMS5003;56232;53.384;-2.732;2023-02-28T06:44:57;8;8;
69123;PMS5003;56232;53.384;-2.732;2023-02-28T06:47:23;6;6;
69123;PMS5003;56232;53.384;-2.732;2023-02-28T06:49:48;7;6;
69123;PMS5003;56232;53.384;-2.732;2023-02-28T06:52:14;6;5;
69123;PMS5003;56232;53.384;-2.732;2023-02-28T06:54:38;6;6;
69123;PMS5003;56232;53.384;-2.732;2023-02-28T06:57:04;5;5;
69123;PMS5003;56232;53.384;-2.732;2023-02-28T06:59:30;5;5;
69123;PMS5003;56232;53.384;-2.732;2023-02-28T07:01:56;5;5;
69123;PMS5003;56232;53.384;-2.732;2023-02-28T07:04:21;6;6;
69123;PMS5003;56232;53.384;-2.732;2023-02-28T07:06:47;6;6;
69123;PMS5003;56232;53.384;-2.732;2023-02-28T07:09:13;7;5;
69123;PMS5003;56232;53.384;-2.732;2023-02-28T07:11:39;6;6;
69123;PMS5003;56232;53.384;-2.732;2023-02-28T07:14:04;6;5;
69123;PMS5003;56232;53.384;-2.732;2023-02-28T07:16:30;4;4;
69123;PMS5003;56232;53.384;-2.732;2023-02-28T07:18:56;5;5;
69123;PMS5003;56232;53.384;-2.732;2023-02-28T07:21:22;5;5;
69123;PMS5003;56232;53.384;-2.732;2023-02-28T07:23:48;6;5;
69123;PMS5003;56232;53.384;-2.732;2023-02-28T07:26:14;5;5;
69123;PMS5003;56232;53.384;-2.732;2023-02-28T07:28:40;4;3;
69123;PMS5003;56232;53.384;-2.732;2023-02-28T07:31:06;6;5;
69123;PMS5003;56232;53.384;-2.732;2023-02-28T07:33:31;4;4;
69123;PMS5003;56232;53.384;-2.732;2023-02-28T07:36:00;4;4;
69123;PMS5003;56232;53.384;-2.732;2023-02-28T07:38:22;5;5;
69123;PMS5003;56232;53.384;-2.732;2023-02-28T07:40:48;7;7;
69123;PMS5003;56232;53.384;-2.732;2023-02-28T07:43:14;5;4;
69123;PMS5003;56232;53.384;-2.732;2023-02-28T07:45:40;5;4;
69123;PMS5003;56232;53.384;-2.732;2023-02-28T07:48:06;6;6;
69123;PMS5003;56232;53.384;-2.732;2023-02-28T07:50:32;7;6;
69123;PMS5003;56232;53.384;-2.732;2023-02-28T07:52:58;6;6;
69123;PMS5003;56232;53.384;-2.732;2023-02-28T07:55:23;5;5;
69123;PMS5003;56232;53.384;-2.732;2023-02-28T07:57:49;4;4;
69123;PMS5003;56232;53.384;-2.732;2023-02-28T08:00:15;5;5;
69123;PMS5003;56232;53.384;-2.732;2023-02-28T08:02:40;7;6;
69123;PMS5003;56232;53.384;-2.732;2023-02-28T08:05:07;3;3;
69123;PMS5003;56232;53.384;-2.732;2023-02-28T08:07:32;4;4;
69123;PMS5003;56232;53.384;-2.732;2023-02-28T08:09:58;4;4;
69123;PMS5003;56232;53.384;-2.732;2023-02-28T08:12:23;8;5;
69123;PMS5003;56232;53.384;-2.732;2023-02-28T08:14:49;6;5;
69123;PMS5003;56232;53.384;-2.732;2023-02-28T08:17:15;6;6;
69123;PMS5003;56232;53.384;-2.732;2023-02-28T08:19:40;5;4;
69123;PMS5003;56232;53.384;-2.732;2023-02-28T08:22:06;4;3;
69123;PMS5003;56232;53.384;-2.732;2023-02-28T08:24:32;4;4;
69123;PMS5003;56232;53.384;-2.732;2023-02-28T08:26:58;3;2;
69123;PMS5003;56232;53.384;-2.732;2023-02-28T08:29:23;3;3;
69123;PMS5003;56232;53.384;-2.732;2023-02-28T08:31:49;4;4;
69123;PMS5003;56232;53.384;-2.732;2023-02-28T08:34:15;4;3;
69123;PMS5003;56232;53.384;-2.732;2023-02-28T08:36:41;3;2;
69123;PMS5003;56232;53.384;-2.732;2023-02-28T08:39:07;2;2;
69123;PMS5003;56232;53.384;-2.732;2023-02-28T08:41:32;2;2;
69123;PMS5003;56232;53.384;-2.732;2023-02-28T08:43:58;3;3;
69123;PMS5003;56232;53.384;-2.732;2023-02-28T08:46:24;1;1;
69123;PMS5003;56232;53.384;-2.732;2023-02-28T08:48:51;3;3;
69123;PMS5003;56232;53.384;-2.732;2023-02-28T08:51:16;9;8;
69123;PMS5003;56232;53.384;-2.732;2023-02-28T08:53:41;2;2;
69123;PMS5003;56232;53.384;-2.732;2023-02-28T08:56:07;3;3;
69123;PMS5003;56232;53.384;-2.732;2023-02-28T08:58:32;1;1;
69123;PMS5003;56232;53.384;-2.732;2023-02-28T09:00:59;2;2;
69123;PMS5003;56232;53.384;-2.732;2023-02-28T09:03:24;2;2;
69123;PMS5003;56232;53.384;-2.732;2023-02-28T09:05:54;3;3;
69123;PMS5003;56232;53.384;-2.732;2023-02-28T09:08:15;3;3;
69123;PMS5003;56232;53.384;-2.732;2023-02-28T09:10:41;3;3;
69123;PMS5003;56232;53.384;-2.732;2023-02-28T09:13:06;5;5;
69123;PMS5003;56232;53.384;-2.732;2023-02-28T09:15:32;4;3;
69123;PMS5003;56232;53.384;-2.732;2023-02-28T09:17:58;3;3;
69123;PMS5003;56232;53.384;-2.732;2023-02-28T09:20:24;3;3;
69123;PMS5003;56232;53.384;-2.732;2023-02-28T09:22:49;4;4;
69123;PMS5003;56232;53.384;-2.732;2023-02-28T09:25:16;2;2;
69123;PMS5003;56232;53.384;-2.732;2023-02-28T09:27:41;3;3;
69123;PMS5003;56232;53.384;-2.732;2023-02-28T09:30:07;3;3;
69123;PMS5003;56232;53.384;-2.732;2023-02-28T09:32:33;3;3;
69123;PMS5003;56232;53.384;-2.732;2023-02-28T09:34:59;3;3;
69123;PMS5003;56232;53.384;-2.732;2023-02-28T09:37:24;4;4;
69123;PMS5003;56232;53.384;-2.732;2023-02-28T09:39:50;3;3;
69123;PMS5003;56232;53.384;-2.732;2023-02-28T09:42:18;3;3;
69123;PMS5003;56232;53.384;-2.732;2023-02-28T09:44:42;3;3;
69123;PMS5003;56232;53.384;-2.732;2023-02-28T09:47:08;3;3;
69123;PMS5003;56232;53.384;-2.732;2023-02-28T09:49:34;2;2;
69123;PMS5003;56232;53.384;-2.732;2023-02-28T09:51:59;3;3;
69123;PMS5003;56232;53.384;-2.732;2023-02-28T09:54:26;2;2;
69123;PMS5003;56232;53.384;-2.732;2023-02-28T09:56:50;3;2;
69123;PMS5003;56232;53.384;-2.732;2023-02-28T09:59:17;3;3;
69123;PMS5003;56232;53.384;-2.732;2023-02-28T10:01:42;4;4;
69123;PMS5003;56232;53.384;-2.732;2023-02-28T10:04:08;2;2;
69123;PMS5003;56232;53.384;-2.732;2023-02-28T10:06:33;3;3;
69123;PMS5003;56232;53.384;-2.732;2023-02-28T10:09:00;2;2;
69123;PMS5003;56232;53.384;-2.732;2023-02-28T10:11:24;3;2;
69123;PMS5003;56232;53.384;-2.732;2023-02-28T10:13:51;2;2;
69123;PMS5003;56232;53.384;-2.732;2023-02-28T10:16:16;1;1;
69123;PMS5003;56232;53.384;-2.732;2023-02-28T10:18:42;2;1;
69123;PMS5003;56232;53.384;-2.732;2023-02-28T10:21:08;2;1;
69123;PMS5003;56232;53.384;-2.732;2023-02-28T10:23:34;1;0;
69123;PMS5003;56232;53.384;-2.732;2023-02-28T10:26:00;0;0;
69123;PMS5003;56232;53.384;-2.732;2023-02-28T10:28:24;0;0;
69123;PMS5003;56232;53.384;-2.732;2023-02-28T10:30:50;0;0;
69123;PMS5003;56232;53.384;-2.732;2023-02-28T10:33:17;0;0;
69123;PMS5003;56232;53.384;-2.732;2023-02-28T10:35:41;1;1;
69123;PMS5003;56232;53.384;-2.732;2023-02-28T10:38:10;2;2;
69123;PMS5003;56232;53.384;-2.732;2023-02-28T10:40:34;2;1;
69123;PMS5003;56232;53.384;-2.732;2023-02-28T10:42:59;1;1;
69123;PMS5003;56232;53.384;-2.732;2023-02-28T10:45:24;2;1;
69123;PMS5003;56232;53.384;-2.732;2023-02-28T10:47:51;1;1;
69123;PMS5003;56232;53.384;-2.732;2023-02-28T10:52:41;0;0;
69123;PMS5003;56232;53.384;-2.732;2023-02-28T10:57:32;5;1;
69123;PMS5003;56232;53.384;-2.732;2023-02-28T11:00:08;2;1;
69123;PMS5003;56232;53.384;-2.732;2023-02-28T11:04:49;1;1;
69123;PMS5003;56232;53.384;-2.732;2023-02-28T11:07:17;1;1;
69123;PMS5003;56232;53.384;-2.732;2023-02-28T11:09:40;1;1;
69123;PMS5003;56232;53.384;-2.732;2023-02-28T11:12:07;3;2;
69123;PMS5003;56232;53.384;-2.732;2023-02-28T11:14:33;2;2;
69123;PMS5003;56232;53.384;-2.732;2023-02-28T11:16:58;2;2;
69123;PMS5003;56232;53.384;-2.732;2023-02-28T11:19:24;2;2;
69123;PMS5003;56232;53.384;-2.732;2023-02-28T11:21:51;3;2;
69123;PMS5003;56232;53.384;-2.732;2023-02-28T11:24:15;2;1;
69123;PMS5003;56232;53.384;-2.732;2023-02-28T11:26:41;4;2;
69123;PMS5003;56232;53.384;-2.732;2023-02-28T11:29:11;2;2;
69123;PMS5003;56232;53.384;-2.732;2023-02-28T11:31:32;1;1;
69123;PMS5003;56232;53.384;-2.732;2023-02-28T11:33:58;2;2;
69123;PMS5003;56232;53.384;-2.732;2023-02-28T11:36:24;2;2;
69123;PMS5003;56232;53.384;-2.732;2023-02-28T11:38:49;3;3;
69123;PMS5003;56232;53.384;-2.732;2023-02-28T11:41:18;3;3;
69123;PMS5003;56232;53.384;-2.732;2023-02-28T11:43:46;1;1;
69123;PMS5003;56232;53.384;-2.732;2023-02-28T11:46:09;3;3;
69123;PMS5003;56232;53.384;-2.732;2023-02-28T11:48:32;2;2;
69123;PMS5003;56232;53.384;-2.732;2023-02-28T11:51:00;2;2;
69123;PMS5003;56232;53.384;-2.732;2023-02-28T11:53:35;3;3;
69123;PMS5003;56232;53.384;-2.732;2023-02-28T11:55:49;2;2;
69123;PMS5003;56232;53.384;-2.732;2023-02-28T11:58:17;3;3;
69123;PMS5003;56232;53.384;-2.732;2023-02-28T12:00:43;2;2;
69123;PMS5003;56232;53.384;-2.732;2023-02-28T12:03:09;2;2;
69123;PMS5003;56232;53.384;-2.732;2023-02-28T12:05:33;1;1;
69123;PMS5003;56232;53.384;-2.732;2023-02-28T12:08:02;2;1;
69123;PMS5003;56232;53.384;-2.732;2023-02-28T12:10:24;1;1;
69123;PMS5003;56232;53.384;-2.732;2023-02-28T12:12:51;2;2;
69123;PMS5003;56232;53.384;-2.732;2023-02-28T12:15:17;1;1;
69123;PMS5003;56232;53.384;-2.732;2023-02-28T12:17:44;0;0;
69123;PMS5003;56232;53.384;-2.732;2023-02-28T12:20:09;1;1;
69123;PMS5003;56232;53.384;-2.732;2023-02-28T12:22:32;1;1;
69123;PMS5003;56232;53.384;-2.732;2023-02-28T12:25:01;1;1;
69123;PMS5003;56232;53.384;-2.732;2023-02-28T12:27:24;1;0;
69123;PMS5003;56232;53.384;-2.732;2023-02-28T12:29:49;0;0;
69123;PMS5003;56232;53.384;-2.732;2023-02-28T12:32:15;1;1;
69123;PMS5003;56232;53.384;-2.732;2023-02-28T12:34:41;0;0;
69123;PMS5003;56232;53.384;-2.732;2023-02-28T12:37:07;0;0;
69123;PMS5003;56232;53.384;-2.732;2023-02-28T12:39:33;0;0;
69123;PMS5003;56232;53.384;-2.732;2023-02-28T12:41:59;1;1;
69123;PMS5003;56232;53.384;-2.732;2023-02-28T12:44:25;1;1;
69123;PMS5003;56232;53.384;-2.732;2023-02-28T12:46:49;0;0;
69123;PMS5003;56232;53.384;-2.732;2023-02-28T12:49:15;0;0;
69123;PMS5003;56232;53.384;-2.732;2023-02-28T12:51:40;3;2;
69123;PMS5003;56232;53.384;-2.732;2023-02-28T12:54:09;1;1;
69123;PMS5003;56232;53.384;-2.732;2023-02-28T12:56:34;0;0;
69123;PMS5003;56232;53.384;-2.732;2023-02-28T12:58:58;0;0;
69123;PMS5003;56232;53.384;-2.732;2023-02-28T13:01:29;0;0;
69123;PMS5003;56232;53.384;-2.732;2023-02-28T13:03:52;0;0;
69123;PMS5003;56232;53.384;-2.732;2023-02-28T13:11:05;1;1;
69123;PMS5003;56232;53.384;-2.732;2023-02-28T13:13:31;2;1;
69123;PMS5003;56232;53.384;-2.732;2023-02-28T13:15:59;0;0;
69123;PMS5003;56232;53.384;-2.732;2023-02-28T13:18:27;1;1;
69123;PMS5003;56232;53.384;-2.732;2023-02-28T13:20:48;2;2;
69123;PMS5003;56232;53.384;-2.732;2023-02-28T13:28:08;0;0;
69123;PMS5003;56232;53.384;-2.732;2023-02-28T13:37:48;1;1;
69123;PMS5003;56232;53.384;-2.732;2023-02-28T13:47:31;1;1;
69123;PMS5003;56232;53.384;-2.732;2023-02-28T13:52:23;0;0;
69123;PMS5003;56232;53.384;-2.732;2023-02-28T13:57:19;0;0;
69123;PMS5003;56232;53.384;-2.732;2023-02-28T13:59:43;1;1;
69123;PMS5003;56232;53.384;-2.732;2023-02-28T14:06:57;1;1;
69123;PMS5003;56232;53.384;-2.732;2023-02-28T14:09:23;1;1;
69123;PMS5003;56232;53.384;-2.732;2023-02-28T14:11:48;1;1;
69123;PMS5003;56232;53.384;-2.732;2023-02-28T14:16:40;3;1;
69123;PMS5003;56232;53.384;-2.732;2023-02-28T14:19:09;1;1;
69123;PMS5003;56232;53.384;-2.732;2023-02-28T14:21:32;1;1;
69123;PMS5003;56232;53.384;-2.732;2023-02-28T14:24:02;2;2;
69123;PMS5003;56232;53.384;-2.732;2023-02-28T14:26:28;1;1;
69123;PMS5003;56232;53.384;-2.732;2023-02-28T14:28:55;2;2;
69123;PMS5003;56232;53.384;-2.732;2023-02-28T14:31:15;2;2;
69123;PMS5003;56232;53.384;-2.732;2023-02-28T14:33:47;3;3;
69123;PMS5003;56232;53.384;-2.732;2023-02-28T14:36:07;1;1;
69123;PMS5003;56232;53.384;-2.732;2023-02-28T14:38:32;0;0;
69123;PMS5003;56232;53.384;-2.732;2023-02-28T14:40:58;2;2;
69123;PMS5003;56232;53.384;-2.732;2023-02-28T14:43:24;2;1;
69123;PMS5003;56232;53.384;-2.732;2023-02-28T14:45:49;2;2;
69123;PMS5003;56232;53.384;-2.732;2023-02-28T14:48:14;2;2;
69123;PMS5003;56232;53.384;-2.732;2023-02-28T14:50:40;4;2;
69123;PMS5003;56232;53.384;-2.732;2023-02-28T14:53:06;2;2;
69123;PMS5003;56232;53.384;-2.732;2023-02-28T14:55:34;1;1;
69123;PMS5003;56232;53.384;-2.732;2023-02-28T14:57:58;2;2;
69123;PMS5003;56232;53.384;-2.732;2023-02-28T15:00:24;3;2;
69123;PMS5003;56232;53.384;-2.732;2023-02-28T15:02:49;1;1;
69123;PMS5003;56232;53.384;-2.732;2023-02-28T15:05:19;3;3;
69123;PMS5003;56232;53.384;-2.732;2023-02-28T15:07:40;2;2;
69123;PMS5003;56232;53.384;-2.732;2023-02-28T15:10:08;2;1;
69123;PMS5003;56232;53.384;-2.732;2023-02-28T15:12:31;1;1;
69123;PMS5003;56232;53.384;-2.732;2023-02-28T15:14:57;1;1;
69123;PMS5003;56232;53.384;-2.732;2023-02-28T15:17:23;2;2;
69123;PMS5003;56232;53.384;-2.732;2023-02-28T15:19:54;2;2;
69123;PMS5003;56232;53.384;-2.732;2023-02-28T15:22:15;2;2;
69123;PMS5003;56232;53.384;-2.732;2023-02-28T15:24:41;3;3;
69123;PMS5003;56232;53.384;-2.732;2023-02-28T15:27:06;2;2;
69123;PMS5003;56232;53.384;-2.732;2023-02-28T15:29:32;3;2;
69123;PMS5003;56232;53.384;-2.732;2023-02-28T15:32:00;2;2;
69123;PMS5003;56232;53.384;-2.732;2023-02-28T15:34:26;2;2;
69123;PMS5003;56232;53.384;-2.732;2023-02-28T15:36:48;1;1;
69123;PMS5003;56232;53.384;-2.732;2023-02-28T15:39:18;2;2;
69123;PMS5003;56232;53.384;-2.732;2023-02-28T15:41:40;1;1;
69123;PMS5003;56232;53.384;-2.732;2023-02-28T15:46:31;2;1;
69123;PMS5003;56232;53.384;-2.732;2023-02-28T15:48:57;2;2;
69123;PMS5003;56232;53.384;-2.732;2023-02-28T15:51:23;3;3;
69123;PMS5003;56232;53.384;-2.732;2023-02-28T15:53:50;1;1;
69123;PMS5003;56232;53.384;-2.732;2023-02-28T15:56:19;1;1;
69123;PMS5003;56232;53.384;-2.732;2023-02-28T15:58:41;3;3;
69123;PMS5003;56232;53.384;-2.732;2023-02-28T16:01:07;3;3;
69123;PMS5003;56232;53.384;-2.732;2023-02-28T16:03:38;1;1;
69123;PMS5003;56232;53.384;-2.732;2023-02-28T16:08:23;1;1;
69123;PMS5003;56232;53.384;-2.732;2023-02-28T16:10:49;1;1;
69123;PMS5003;56232;53.384;-2.732;2023-02-28T16:13:15;1;1;
69123;PMS5003;56232;53.384;-2.732;2023-02-28T16:15:41;1;1;
69123;PMS5003;56232;53.384;-2.732;2023-02-28T16:18:07;0;0;
69123;PMS5003;56232;53.384;-2.732;2023-02-28T16:20:32;1;1;
69123;PMS5003;56232;53.384;-2.732;2023-02-28T16:22:58;2;1;
69123;PMS5003;56232;53.384;-2.732;2023-02-28T16:25:25;0;0;
69123;PMS5003;56232;53.384;-2.732;2023-02-28T16:27:50;1;1;
69123;PMS5003;56232;53.384;-2.732;2023-02-28T16:30:16;1;1;
69123;PMS5003;56232;53.384;-2.732;2023-02-28T16:32:40;0;0;
69123;PMS5003;56232;53.384;-2.732;2023-02-28T16:35:09;1;1;
69123;PMS5003;56232;53.384;-2.732;2023-02-28T16:37:32;1;1;
69123;PMS5003;56232;53.384;-2.732;2023-02-28T16:39:58;1;1;
69123;PMS5003;56232;53.384;-2.732;2023-02-28T16:42:24;1;1;
69123;PMS5003;56232;53.384;-2.732;2023-02-28T16:44:49;19;19;
69123;PMS5003;56232;53.384;-2.732;2023-02-28T16:47:15;54;46;
69123;PMS5003;56232;53.384;-2.732;2023-02-28T16:49:40;10;10;
69123;PMS5003;56232;53.384;-2.732;2023-02-28T16:52:06;20;20;
69123;PMS5003;56232;53.384;-2.732;2023-02-28T16:54:32;36;34;
69123;PMS5003;56232;53.384;-2.732;2023-02-28T16:56:58;64;57;
69123;PMS5003;56232;53.384;-2.732;2023-02-28T16:59:23;72;64;
69123;PMS5003;56232;53.384;-2.732;2023-02-28T17:01:49;66;62;
69123;PMS5003;56232;53.384;-2.732;2023-02-28T17:04:14;31;26;
69123;PMS5003;56232;53.384;-2.732;2023-02-28T17:06:40;7;6;
69123;PMS5003;56232;53.384;-2.732;2023-02-28T17:09:05;10;9;
69123;PMS5003;56232;53.384;-2.732;2023-02-28T17:11:31;8;8;
69123;PMS5003;56232;53.384;-2.732;2023-02-28T17:13:57;7;7;
69123;PMS5003;56232;53.384;-2.732;2023-02-28T17:16:23;3;2;